Time;durP1;ratioP1;P1;durP2;ratioP2;P2;SDS_P1;SDS_P2;PMS_P1;PMS_P2;Temp;Humidity;BMP_temperature;BMP_pressure;BME280_temperature;BME280_humidity;BME280_pressure;Samples;Min_cycle;Max_cycle;Signal;HPM_P1;HPM_P2
2023/06/26 00:01:57;;;;;;;21.90;14.75;;;;;;;-145.63;42.43;38856.06;5063151;28;20036;-66
2023/06/26 00:04:23;;;;;;;21.70;15.80;;;;;;;-145.63;42.61;38865.84;5063077;28;20095;-65
2023/06/26 00:06:48;;;;;;;24.13;17.90;;;;;;;-145.63;42.95;38852.16;5062957;28;20457;-66
2023/06/26 00:09:14;;;;;;;21.85;18.13;;;;;;;-145.63;42.64;38859.97;5053624;28;20033;-65
2023/06/26 00:11:39;;;;;;;26.17;20.05;;;;;;;-145.63;42.69;38871.72;5054777;28;20028;-65
2023/06/26 00:14:06;;;;;;;20.77;17.13;;;;;;;-145.63;42.29;38854.13;5058332;28;20198;-64
2023/06/26 00:16:32;;;;;;;24.17;18.95;;;;;;;-145.63;42.54;38789.59;5054772;28;20097;-65
2023/06/26 00:18:58;;;;;;;27.35;21.67;;;;;;;-145.63;42.13;38834.56;5051608;28;20044;-66
2023/06/26 00:21:25;;;;;;;42.58;27.85;;;;;;;-145.63;41.98;38891.28;5054017;28;20044;-65
2023/06/26 00:23:51;;;;;;;47.97;31.00;;;;;;;-145.63;40.82;38848.25;5054267;28;20071;-65
2023/06/26 00:26:17;;;;;;;39.53;28.98;;;;;;;-145.63;40.55;38871.72;5054042;28;20059;-65
2023/06/26 00:28:42;;;;;;;39.58;27.70;;;;;;;-145.63;40.71;38863.88;5053295;28;20325;-64
2023/06/26 00:31:08;;;;;;;38.88;27.48;;;;;;;-145.63;40.42;38865.84;5051180;28;20241;-65
2023/06/26 00:33:33;;;;;;;38.08;26.58;;;;;;;-145.63;40.38;38871.72;5051811;28;20056;-64
2023/06/26 00:35:59;;;;;;;35.97;25.90;;;;;;;-145.63;40.62;38875.63;5054587;28;20343;-64
2023/06/26 00:38:24;;;;;;;32.03;24.85;;;;;;;-145.63;40.09;38844.34;5052517;28;20029;-65
2023/06/26 00:40:50;;;;;;;29.70;23.15;;;;;;;-145.63;40.17;38852.16;5054252;28;20336;-65
2023/06/26 00:43:15;;;;;;;33.22;23.67;;;;;;;-145.63;39.88;38756.34;5054061;28;20029;-65
2023/06/26 00:45:41;;;;;;;33.50;23.67;;;;;;;-145.63;40.61;38869.75;5060005;28;20029;-65
2023/06/26 00:48:07;;;;;;;31.48;23.40;;;;;;;-145.63;40.70;38846.28;5062909;28;20040;-65
2023/06/26 00:50:32;;;;;;;28.33;22.95;;;;;;;-145.63;40.83;38836.50;5062413;28;20024;-65
2023/06/26 00:53:00;;;;;;;28.85;21.25;;;;;;;-145.63;40.85;38824.78;5062810;28;20343;-66
2023/06/26 00:55:27;;;;;;;24.55;19.58;;;;;;;-145.63;41.06;38846.28;5062777;28;20107;-64
2023/06/26 00:57:54;;;;;;;26.13;21.10;;;;;;;-145.63;41.44;38818.91;5063586;28;20048;-66
2023/06/26 01:00:20;;;;;;;27.13;20.35;;;;;;;-145.63;41.02;38844.34;5066605;28;20017;-65
2023/06/26 01:02:46;;;;;;;25.17;19.90;;;;;;;-145.63;40.81;38850.19;5066677;28;20087;-64
2023/06/26 01:05:18;;;;;;;23.23;19.23;;;;;;;-145.63;41.31;38813.03;5066728;28;20057;-64
2023/06/26 01:07:44;;;;;;;24.30;19.67;;;;;;;-145.63;41.01;38871.72;5066596;28;20037;-67
2023/06/26 01:10:10;;;;;;;24.67;19.50;;;;;;;-145.63;41.35;38895.19;5066727;28;20063;-65
2023/06/26 01:12:38;;;;;;;23.38;19.90;;;;;;;-145.63;41.23;38834.56;5066686;28;20039;-65
2023/06/26 01:15:04;;;;;;;25.52;20.27;;;;;;;-145.63;41.59;38838.47;5066395;28;20048;-65
2023/06/26 01:17:32;;;;;;;26.70;19.38;;;;;;;-145.63;41.94;38897.13;5066173;28;20027;-64
2023/06/26 01:20:05;;;;;;;22.95;18.10;;;;;;;-145.63;41.86;38848.25;5066493;28;20071;-65
2023/06/26 01:22:54;;;;;;;24.23;19.38;;;;;;;-145.63;42.79;38858.03;5066424;28;20095;-65
2023/06/26 01:25:55;;;;;;;26.48;19.55;;;;;;;-145.63;43.03;38861.94;5066235;28;20025;-64
2023/06/26 01:28:22;;;;;;;29.52;22.05;;;;;;;-145.63;42.84;38873.66;5065276;28;20036;-66
2023/06/26 01:30:50;;;;;;;24.80;20.08;;;;;;;-145.63;42.74;38852.16;5065851;28;20085;-66
2023/06/26 01:33:15;;;;;;;24.90;19.40;;;;;;;-145.63;42.68;38867.81;5066095;28;20078;-66
2023/06/26 01:35:41;;;;;;;25.92;20.13;;;;;;;-145.63;42.83;38895.19;5065397;28;20159;-66
2023/06/26 01:38:13;;;;;;;25.20;19.60;;;;;;;-145.63;43.28;38858.03;5064723;28;20021;-64
2023/06/26 01:40:39;;;;;;;30.10;21.05;;;;;;;-145.63;42.90;38889.31;5064210;28;20036;-65
2023/06/26 01:43:10;;;;;;;22.92;18.15;;;;;;;-145.63;42.98;38879.53;5065661;28;20074;-65
2023/06/26 01:45:36;;;;;;;21.77;18.52;;;;;;;-145.63;43.30;38858.03;5064308;28;20190;-64
2023/06/26 01:48:06;;;;;;;26.00;19.25;;;;;;;-145.63;42.94;38856.06;5065840;28;20078;-65
2023/06/26 01:50:33;;;;;;;21.48;18.00;;;;;;;-145.63;42.94;38844.34;5063946;28;20055;-65
2023/06/26 01:53:11;;;;;;;22.63;18.70;;;;;;;-145.63;43.30;38852.16;5058793;28;20036;-65
2023/06/26 01:55:45;;;;;;;21.83;17.52;;;;;;;-145.63;42.81;38865.84;5065131;28;20029;-65
2023/06/26 01:58:13;;;;;;;22.45;18.35;;;;;;;-145.63;43.11;38773.94;5065640;28;20036;-64
2023/06/26 02:00:39;;;;;;;21.20;18.33;;;;;;;-145.63;43.35;38863.88;5046644;28;20029;-64
2023/06/26 02:03:06;;;;;;;19.23;16.73;;;;;;;-145.63;43.37;38879.53;5065174;28;20040;-66
2023/06/26 02:05:32;;;;;;;23.33;17.73;;;;;;;-145.63;43.71;38875.63;5064515;28;20278;-65
2023/06/26 02:07:58;;;;;;;21.20;17.58;;;;;;;-145.63;43.24;38889.31;5065154;28;20167;-65
2023/06/26 02:10:23;;;;;;;20.75;18.23;;;;;;;-145.63;42.92;38824.78;5063975;28;20321;-65
2023/06/26 02:12:49;;;;;;;21.23;16.90;;;;;;;-145.63;42.66;38869.75;5064821;28;20029;-64
2023/06/26 02:15:14;;;;;;;20.52;16.00;;;;;;;-145.63;42.96;38858.03;5065354;28;20048;-65
2023/06/26 02:17:40;;;;;;;20.52;17.23;;;;;;;-145.63;42.87;38881.50;5064795;28;20065;-65
2023/06/26 02:20:08;;;;;;;18.80;16.67;;;;;;;-145.63;42.60;38889.31;5064712;28;20032;-65
2023/06/26 02:22:33;;;;;;;19.20;15.48;;;;;;;-145.63;42.37;38883.44;5064846;28;20096;-64
2023/06/26 02:24:59;;;;;;;19.83;17.38;;;;;;;-145.63;42.59;38891.28;5065032;28;20032;-64
2023/06/26 02:27:25;;;;;;;18.38;16.33;;;;;;;-145.63;42.55;38867.81;5064969;28;20040;-65
2023/06/26 02:29:50;;;;;;;18.15;16.17;;;;;;;-145.63;42.66;38844.34;5064771;28;20028;-65
2023/06/26 02:32:16;;;;;;;18.20;16.17;;;;;;;-145.63;42.27;38867.81;5064590;28;20036;-65
2023/06/26 02:34:41;;;;;;;19.75;15.60;;;;;;;-145.63;42.40;38885.41;5064768;28;20028;-64
2023/06/26 02:37:07;;;;;;;17.63;14.82;;;;;;;-145.63;42.96;38881.50;5064607;28;20036;-65
2023/06/26 02:39:34;;;;;;;21.25;17.40;;;;;;;-145.63;43.21;38883.44;5064724;28;20028;-65
2023/06/26 02:41:59;;;;;;;17.95;15.88;;;;;;;-145.63;43.37;38899.09;5064043;28;20032;-64
2023/06/26 02:44:25;;;;;;;17.45;15.07;;;;;;;-145.63;43.65;38859.97;5064704;28;20198;-65
2023/06/26 02:46:51;;;;;;;18.20;15.73;;;;;;;-145.63;43.91;38891.28;5064212;28;20057;-64
2023/06/26 02:49:16;;;;;;;20.35;15.13;;;;;;;-145.63;44.27;38879.53;5064655;28;20028;-65
2023/06/26 02:51:42;;;;;;;20.33;16.35;;;;;;;-145.63;44.27;38918.66;5064162;28;20025;-63
2023/06/26 02:54:07;;;;;;;20.45;15.77;;;;;;;-145.63;44.13;38885.41;5064569;28;20096;-65
2023/06/26 02:56:33;;;;;;;18.98;15.20;;;;;;;-145.63;44.54;38885.41;5064102;28;20029;-66
2023/06/26 02:58:58;;;;;;;18.17;15.75;;;;;;;-145.63;44.08;38883.44;5064420;28;20025;-64
2023/06/26 03:01:24;;;;;;;15.63;14.00;;;;;;;-145.63;44.22;38893.22;5063047;28;20029;-65
2023/06/26 03:03:50;;;;;;;15.50;13.90;;;;;;;-145.63;43.87;38854.13;5064321;28;20055;-65
2023/06/26 03:06:16;;;;;;;16.10;14.40;;;;;;;-145.63;44.20;38879.53;5064066;28;20040;-64
2023/06/26 03:08:42;;;;;;;24.02;18.30;;;;;;;-145.63;44.71;38887.34;5063947;28;20078;-66
2023/06/26 03:11:08;;;;;;;20.20;17.73;;;;;;;-145.63;44.50;38719.19;5063987;28;20029;-66
2023/06/26 03:13:35;;;;;;;18.20;14.55;;;;;;;-145.63;44.75;38844.34;5064213;28;20242;-66
2023/06/26 03:16:01;;;;;;;16.90;14.48;;;;;;;-145.63;44.35;38865.84;5063361;28;20036;-65
2023/06/26 03:18:27;;;;;;;17.98;15.07;;;;;;;-145.63;44.28;38879.53;5064102;28;20055;-65
2023/06/26 03:20:54;;;;;;;18.23;15.07;;;;;;;-145.63;44.06;38844.34;5063581;28;20041;-65
2023/06/26 03:23:20;;;;;;;16.98;13.70;;;;;;;-145.63;44.12;38867.81;5061867;28;20088;-64
2023/06/26 03:25:46;;;;;;;17.65;14.20;;;;;;;-145.63;44.12;38858.03;5062399;28;20025;-65
2023/06/26 03:28:11;;;;;;;18.73;15.38;;;;;;;-145.63;42.63;38871.72;5062626;28;20256;-65
2023/06/26 03:30:37;;;;;;;17.83;14.40;;;;;;;-145.63;43.10;38848.25;5063343;28;20067;-65
2023/06/26 03:33:02;;;;;;;17.48;15.60;;;;;;;-145.63;42.44;38871.72;5063483;28;20029;-65
2023/06/26 03:35:28;;;;;;;16.67;14.40;;;;;;;-145.63;42.63;38838.47;5063699;28;20031;-64
2023/06/26 03:37:54;;;;;;;16.35;13.70;;;;;;;-145.63;43.26;38824.78;5063174;28;20081;-65
2023/06/26 03:40:19;;;;;;;20.95;17.63;;;;;;;-145.63;42.07;38850.19;5063482;28;20029;-65
2023/06/26 03:42:45;;;;;;;19.23;15.30;;;;;;;-145.63;42.75;38777.84;5062842;28;20245;-65
2023/06/26 03:45:11;;;;;;;18.95;14.27;;;;;;;-145.63;42.79;38760.25;5063714;28;20036;-65
2023/06/26 03:47:36;;;;;;;20.55;17.73;;;;;;;-145.63;43.09;38824.78;5063172;28;20031;-65
2023/06/26 03:50:02;;;;;;;22.60;17.52;;;;;;;-145.63;42.84;38789.59;5063478;28;20025;-66
2023/06/26 03:52:30;;;;;;;22.77;17.33;;;;;;;-145.63;43.30;38773.94;5063486;28;20020;-65
2023/06/26 03:54:57;;;;;;;23.35;19.02;;;;;;;-145.63;41.59;38734.81;5063390;28;20027;-66
2023/06/26 03:57:22;;;;;;;23.38;19.45;;;;;;;-145.63;41.87;38717.22;5063076;28;20037;-65
2023/06/26 03:59:48;;;;;;;20.85;18.20;;;;;;;-145.63;40.53;38754.38;5063255;28;20185;-66
2023/06/26 04:02:13;;;;;;;22.48;19.48;;;;;;;-145.63;40.77;38719.19;5061580;28;20356;-66
2023/06/26 04:04:39;;;;;;;22.83;19.30;;;;;;;-145.63;40.80;38668.34;5063133;28;20021;-66
2023/06/26 04:07:05;;;;;;;26.45;19.98;;;;;;;-145.63;41.07;38701.59;5062844;28;20041;-65
2023/06/26 04:09:30;;;;;;;21.15;17.67;;;;;;;-145.63;40.96;38697.69;5063053;28;20040;-65
2023/06/26 04:11:56;;;;;;;22.58;17.02;;;;;;;-145.63;41.02;38676.16;5062798;28;20028;-66
2023/06/26 04:14:21;;;;;;;21.70;16.60;;;;;;;-145.63;40.14;38648.78;5062929;28;20071;-65
2023/06/26 04:16:47;;;;;;;19.30;17.00;;;;;;;-145.63;39.76;38687.91;5062194;28;20029;-66
2023/06/26 04:19:13;;;;;;;18.90;15.88;;;;;;;-145.63;39.23;38648.78;5066047;28;20024;-65
2023/06/26 04:21:38;;;;;;;20.27;15.77;;;;;;;-145.63;38.62;38627.28;5063817;28;20021;-65
2023/06/26 04:24:05;;;;;;;19.40;14.73;;;;;;;-145.63;39.09;38642.91;5062965;28;20028;-65
2023/06/26 04:26:30;;;;;;;21.65;15.52;;;;;;;-145.63;39.80;38588.16;5062617;28;20028;-65
2023/06/26 04:28:56;;;;;;;17.88;15.23;;;;;;;-145.63;39.00;38594.03;5062770;28;20025;-66
2023/06/26 04:31:22;;;;;;;14.43;12.80;;;;;;;-145.63;37.59;38611.63;5062223;28;20036;-65
2023/06/26 04:33:50;;;;;;;14.38;12.80;;;;;;;-145.63;37.21;38554.94;5062203;28;20041;-66
2023/06/26 04:36:17;;;;;;;15.60;12.85;;;;;;;-145.63;37.10;38552.97;5062704;28;20040;-65
2023/06/26 04:38:43;;;;;;;13.93;11.40;;;;;;;-145.63;37.70;38508.00;5062664;28;20036;-66
2023/06/26 04:41:08;;;;;;;14.73;12.98;;;;;;;-145.63;37.94;38531.47;5061970;28;20029;-65
2023/06/26 04:43:34;;;;;;;15.18;11.57;;;;;;;-145.63;36.78;38523.66;5062550;28;20039;-65
2023/06/26 04:46:00;;;;;;;14.18;10.55;;;;;;;-145.63;36.50;38457.16;5062438;28;20045;-65
2023/06/26 04:48:28;;;;;;;12.88;11.40;;;;;;;-145.63;36.61;38457.16;5062640;28;20206;-66
2023/06/26 04:50:55;;;;;;;13.63;10.43;;;;;;;-145.63;36.54;38498.22;5060284;28;20063;-65
2023/06/26 04:53:22;;;;;;;14.25;11.25;;;;;;;-145.63;35.89;38449.34;5062392;28;20233;-65
2023/06/26 04:55:49;;;;;;;11.55;10.32;;;;;;;-145.63;34.85;38482.59;5062276;28;20100;-66
2023/06/26 04:58:16;;;;;;;12.15;10.85;;;;;;;-145.63;35.21;38433.69;5062534;28;20090;-66
2023/06/26 05:00:42;;;;;;;13.52;11.10;;;;;;;-145.63;35.38;38427.84;5061883;28;20093;-65
2023/06/26 05:03:09;;;;;;;14.95;11.63;;;;;;;-145.63;34.78;38461.06;5062514;28;20294;-66
2023/06/26 05:05:34;;;;;;;11.73;8.93;;;;;;;-145.63;33.71;38408.28;5062205;28;20232;-65
2023/06/26 05:08:17;;;;;;;10.63;9.57;;;;;;;-145.63;33.70;38361.34;5062299;28;20044;-66
2023/06/26 05:10:42;;;;;;;12.90;10.20;;;;;;;-145.63;34.29;38375.03;5059731;28;20032;-66
2023/06/26 05:13:08;;;;;;;12.25;9.45;;;;;;;-145.63;34.42;38312.47;5058327;28;20363;-65
2023/06/26 05:15:33;;;;;;;10.80;9.65;;;;;;;-145.63;33.73;38390.69;5062014;28;20043;-64
2023/06/26 05:17:59;;;;;;;10.10;8.93;;;;;;;-145.63;32.73;38304.66;5062083;28;20029;-65
2023/06/26 05:20:24;;;;;;;10.05;9.02;;;;;;;-145.63;32.42;38341.81;5062400;28;20025;-64
2023/06/26 05:22:50;;;;;;;10.95;8.38;;;;;;;-145.63;31.53;38306.59;5045800;28;20041;-66
2023/06/26 05:25:21;;;;;;;8.10;7.30;;;;;;;-145.63;31.38;38273.38;5062417;28;20033;-66
2023/06/26 05:27:47;;;;;;;11.82;8.35;;;;;;;-145.63;31.53;38308.56;5061856;28;20029;-65
2023/06/26 05:30:13;;;;;;;9.65;8.05;;;;;;;-145.63;31.38;38271.41;5061025;28;20104;-68
2023/06/26 05:32:40;;;;;;;8.90;8.00;;;;;;;-145.63;31.95;38228.41;5051305;28;20109;-67
2023/06/26 05:35:06;;;;;;;8.25;7.45;;;;;;;-145.63;29.85;38244.03;5052623;28;20344;-66
2023/06/26 05:37:33;;;;;;;11.43;7.43;;;;;;;-145.63;30.27;38246.00;5062071;28;20334;-66
2023/06/26 05:39:59;;;;;;;7.50;6.75;;;;;;;-145.63;30.44;38232.31;5055823;28;20020;-66
2023/06/26 05:42:29;;;;;;;7.95;7.13;;;;;;;-145.63;30.33;38161.91;5047581;28;20343;-66
2023/06/26 05:44:56;;;;;;;7.95;7.15;;;;;;;-145.63;29.63;38169.75;5059055;28;20052;-66
2023/06/26 05:47:22;;;;;;;8.18;7.38;;;;;;;-145.63;29.65;38189.28;5065351;28;20100;-67
2023/06/26 05:49:47;;;;;;;9.13;7.47;;;;;;;-145.63;29.41;38159.97;5065423;28;20074;-67
2023/06/26 05:52:13;;;;;;;8.60;6.75;;;;;;;-145.63;29.09;38152.16;5065355;28;20021;-65
2023/06/26 05:54:39;;;;;;;10.13;7.47;;;;;;;-145.63;29.08;38163.88;5065487;28;20198;-66
2023/06/26 05:57:05;;;;;;;11.15;9.73;;;;;;;-145.63;29.80;38130.63;5065255;28;20045;-66
2023/06/26 05:59:32;;;;;;;7.88;7.07;;;;;;;-145.63;28.22;38163.88;5065443;28;20273;-66
2023/06/26 06:01:57;;;;;;;9.27;7.38;;;;;;;-145.63;28.71;38159.97;5065031;28;20033;-66
2023/06/26 06:04:23;;;;;;;10.00;7.70;;;;;;;-145.63;28.86;37970.31;5065447;28;20075;-66
2023/06/26 06:06:48;;;;;;;8.32;7.25;;;;;;;-145.63;28.75;38120.88;5064808;28;20044;-67
2023/06/26 06:09:14;;;;;;;8.60;6.57;;;;;;;-145.63;27.57;38081.75;5065207;28;20033;-67
2023/06/26 06:11:39;;;;;;;7.13;6.43;;;;;;;-145.63;27.69;38081.75;5064302;28;20029;-66
2023/06/26 06:14:05;;;;;;;9.10;7.38;;;;;;;-145.63;28.30;38116.94;5065300;28;20294;-66
2023/06/26 06:16:30;;;;;;;7.68;6.88;;;;;;;-145.63;28.09;38068.06;5062075;28;20021;-66
2023/06/26 06:18:56;;;;;;;7.93;7.13;;;;;;;-145.63;27.36;38105.22;5056363;28;20206;-67
2023/06/26 06:21:22;;;;;;;7.70;6.75;;;;;;;-145.63;27.34;37941.00;5056642;28;20309;-67
2023/06/26 06:23:47;;;;;;;7.82;7.05;;;;;;;-145.63;27.74;38042.66;5056774;28;20360;-67
2023/06/26 06:26:13;;;;;;;7.78;6.97;;;;;;;-145.63;27.79;38011.38;5059238;28;20308;-67
2023/06/26 06:28:39;;;;;;;7.35;6.65;;;;;;;-145.63;26.12;38042.66;5054619;28;20301;-66
2023/06/26 06:31:05;;;;;;;9.25;7.55;;;;;;;-145.63;27.48;37987.91;5056165;28;20291;-66
2023/06/26 06:33:30;;;;;;;7.45;6.75;;;;;;;-145.63;27.12;38025.06;5055146;28;20036;-68
2023/06/26 06:35:56;;;;;;;9.32;7.10;;;;;;;-145.63;26.89;38050.47;5059517;28;20040;-67
2023/06/26 06:38:22;;;;;;;7.75;6.95;;;;;;;-145.63;26.26;38036.78;5054654;28;20089;-67
2023/06/26 06:40:47;;;;;;;8.05;7.25;;;;;;;-145.63;26.85;38050.47;5053087;28;20179;-65
2023/06/26 06:43:13;;;;;;;8.55;7.35;;;;;;;-145.63;27.28;37985.97;5053541;28;20198;-68
2023/06/26 06:45:38;;;;;;;7.63;6.93;;;;;;;-145.63;26.83;37974.22;5055000;28;20036;-67
2023/06/26 06:48:05;;;;;;;6.95;6.35;;;;;;;-145.63;27.05;37952.72;5054823;28;20248;-66
2023/06/26 06:50:31;;;;;;;7.03;6.43;;;;;;;-145.63;25.92;37954.69;5063610;28;20029;-66
2023/06/26 06:52:56;;;;;;;7.88;6.90;;;;;;;-145.63;26.65;37946.84;5064539;28;20070;-66
2023/06/26 06:55:22;;;;;;;7.50;6.75;;;;;;;-145.63;26.68;38030.94;5063708;28;20088;-66
2023/06/26 06:57:48;;;;;;;8.55;6.10;;;;;;;-145.63;25.38;38005.50;5064530;28;20318;-66
2023/06/26 07:00:14;;;;;;;8.27;6.55;;;;;;;-145.63;25.46;37941.00;5064678;28;20051;-66
2023/06/26 07:02:41;;;;;;;7.07;5.97;;;;;;;-145.63;25.56;37964.44;5060071;28;20029;-66
2023/06/26 07:05:07;;;;;;;7.28;6.55;;;;;;;-145.63;27.27;37946.84;5061620;28;20032;-66
2023/06/26 07:07:34;;;;;;;6.63;5.78;;;;;;;-145.63;26.91;37897.97;5063971;28;20103;-66
2023/06/26 07:10:02;;;;;;;6.82;6.13;;;;;;;-145.63;25.43;37995.72;5044402;28;20045;-67
2023/06/26 07:12:28;;;;;;;7.07;6.22;;;;;;;-145.63;25.70;38007.47;5060342;28;20059;-66
2023/06/26 07:14:55;;;;;;;8.80;6.75;;;;;;;-145.63;25.74;37991.81;5064038;28;20041;-66
2023/06/26 07:17:21;;;;;;;6.55;5.95;;;;;;;-145.63;27.13;37921.44;5064028;28;20048;-66
2023/06/26 07:19:47;;;;;;;7.18;5.93;;;;;;;-145.63;25.22;37870.59;5063817;28;20114;-66
2023/06/26 07:22:13;;;;;;;7.68;6.00;;;;;;;-145.63;25.26;37882.34;5064077;28;20092;-66
2023/06/26 07:24:38;;;;;;;6.63;6.00;;;;;;;-145.63;25.69;37878.44;5063832;28;20028;-65
2023/06/26 07:27:04;;;;;;;7.38;6.43;;;;;;;-145.63;24.25;37882.34;5063716;28;20334;-66
2023/06/26 07:29:29;;;;;;;9.20;6.68;;;;;;;-145.63;25.02;37843.25;5063415;28;20318;-66
2023/06/26 07:31:55;;;;;;;6.93;6.22;;;;;;;-145.63;24.53;37845.19;5063770;28;20033;-65
2023/06/26 07:34:21;;;;;;;6.60;6.00;;;;;;;-145.63;24.10;37860.84;5063609;28;20020;-65
2023/06/26 07:36:46;;;;;;;7.75;5.82;;;;;;;-145.63;24.10;37942.94;5063490;28;20383;-67
2023/06/26 07:39:12;;;;;;;6.47;5.80;;;;;;;-145.63;24.20;37864.75;5060917;28;20025;-66
2023/06/26 07:41:37;;;;;;;6.80;6.20;;;;;;;-145.63;24.39;37794.38;5054145;28;20028;-66
2023/06/26 07:44:03;;;;;;;7.10;6.15;;;;;;;-145.63;24.37;37782.63;5048686;28;20024;-66
2023/06/26 07:46:29;;;;;;;7.82;6.35;;;;;;;-145.63;25.02;37770.91;5052009;28;20025;-67
2023/06/26 07:48:54;;;;;;;8.32;6.50;;;;;;;-145.63;24.51;37794.38;5055032;28;20055;-65
2023/06/26 07:51:20;;;;;;;9.77;6.63;;;;;;;-145.63;23.83;37768.94;5054383;28;20047;-67
2023/06/26 07:53:46;;;;;;;6.80;6.10;;;;;;;-145.63;23.79;37767.00;5054203;28;20025;-66
2023/06/26 07:56:11;;;;;;;9.45;6.38;;;;;;;-145.63;24.47;37765.03;5053423;28;20028;-66
2023/06/26 07:58:37;;;;;;;7.38;6.63;;;;;;;-145.63;24.08;37806.09;5052471;28;20064;-66
2023/06/26 08:01:03;;;;;;;6.88;6.10;;;;;;;-145.63;23.98;37772.84;5054675;28;20029;-66
2023/06/26 08:03:28;;;;;;;7.72;6.95;;;;;;;-145.63;23.27;37851.06;5054264;28;20048;-66
2023/06/26 08:05:54;;;;;;;6.40;5.80;;;;;;;-145.63;22.28;37925.34;5052330;28;20063;-66
2023/06/26 08:08:19;;;;;;;7.78;5.38;;;;;;;-145.63;22.21;37837.38;5049613;28;20044;-68
2023/06/26 08:10:45;;;;;;;6.63;5.90;;;;;;;-145.63;22.64;37739.63;5058133;28;20037;-67
2023/06/26 08:13:10;;;;;;;7.15;6.15;;;;;;;-145.63;21.28;37767.00;5053230;28;20024;-66
2023/06/26 08:15:36;;;;;;;7.05;6.35;;;;;;;-145.63;21.36;37714.22;5056105;28;20028;-66
2023/06/26 08:18:01;;;;;;;7.70;6.18;;;;;;;-145.63;21.92;37708.34;5053791;28;20033;-66
2023/06/26 08:20:28;;;;;;;7.10;6.13;;;;;;;-145.63;22.25;37723.97;5054381;28;20063;-66
2023/06/26 08:22:54;;;;;;;6.65;5.90;;;;;;;-145.63;21.78;37786.53;5053650;28;20037;-66
2023/06/26 08:25:20;;;;;;;7.20;6.50;;;;;;;-145.63;21.57;37753.31;5052607;28;20187;-66
2023/06/26 08:27:46;;;;;;;6.38;5.80;;;;;;;-145.63;23.27;37669.25;5048260;28;20027;-67
2023/06/26 08:30:11;;;;;;;8.73;7.25;;;;;;;-145.63;20.99;37702.47;5053971;28;20025;-66
2023/06/26 08:32:37;;;;;;;7.55;6.35;;;;;;;-145.63;22.02;37706.38;5061945;28;20203;-66
2023/06/26 08:35:04;;;;;;;7.55;6.45;;;;;;;-145.63;23.48;37579.31;5077617;28;20040;-68
2023/06/26 08:37:32;;;;;;;7.10;6.40;;;;;;;-145.63;22.43;37557.81;5062360;28;20029;-68
2023/06/26 08:39:59;;;;;;;6.57;5.97;;;;;;;-145.63;21.80;37510.91;5061669;28;20039;-67
2023/06/26 08:42:24;;;;;;;8.18;6.90;;;;;;;-145.63;22.31;37475.72;5062794;28;20021;-68
2023/06/26 08:44:50;;;;;;;7.35;6.60;;;;;;;-145.63;21.83;37628.19;5062564;28;20268;-67
2023/06/26 08:47:16;;;;;;;9.75;6.57;;;;;;;-145.63;22.51;37637.97;5062660;28;20029;-67
2023/06/26 08:49:41;;;;;;;7.38;6.68;;;;;;;-145.63;21.59;37637.97;5061275;28;20198;-66
2023/06/26 08:52:21;;;;;;;9.13;6.53;;;;;;;-145.63;21.66;37692.72;5061653;28;20450;-67
2023/06/26 08:54:54;;;;;;;6.72;6.13;;;;;;;-145.63;22.02;37536.31;5062557;28;20321;-66
2023/06/26 08:57:22;;;;;;;7.10;6.38;;;;;;;-145.63;21.22;37602.78;5062074;28;20033;-66
2023/06/26 08:59:48;;;;;;;6.93;6.22;;;;;;;-145.63;21.63;37628.19;5056736;28;20105;-66
2023/06/26 09:02:14;;;;;;;7.40;6.00;;;;;;;-145.63;20.89;37583.22;5059395;28;20179;-67
2023/06/26 09:04:40;;;;;;;9.63;6.68;;;;;;;-145.63;21.33;37538.25;5052078;28;20096;-66
2023/06/26 09:07:06;;;;;;;7.05;6.35;;;;;;;-145.63;21.37;37591.06;5053382;28;20083;-66
2023/06/26 09:09:32;;;;;;;7.47;6.53;;;;;;;-145.63;21.02;37542.19;5052717;28;20053;-65
2023/06/26 09:11:58;;;;;;;8.95;6.47;;;;;;;-145.63;21.25;37542.19;5053212;28;20074;-66
2023/06/26 09:14:23;;;;;;;6.97;6.28;;;;;;;-145.63;20.57;37510.91;5053051;28;20070;-66
2023/06/26 09:16:50;;;;;;;8.77;6.75;;;;;;;-145.63;20.17;37542.19;5048456;28;20067;-67
2023/06/26 09:19:15;;;;;;;6.32;5.72;;;;;;;-145.63;21.39;37446.38;5061420;28;20029;-66
2023/06/26 09:21:43;;;;;;;7.00;5.97;;;;;;;-145.63;21.30;37393.59;5053964;28;20061;-66
2023/06/26 09:24:09;;;;;;;6.72;6.13;;;;;;;-145.63;20.83;37354.50;5056353;28;20304;-66
2023/06/26 09:26:40;;;;;;;7.07;6.38;;;;;;;-145.63;20.55;37397.53;5056638;28;20025;-68
2023/06/26 09:29:06;;;;;;;7.32;5.90;;;;;;;-145.63;20.61;37370.16;5057574;28;20025;-67
2023/06/26 09:31:33;;;;;;;7.28;6.57;;;;;;;-145.63;20.12;37008.53;5055028;28;20416;-66
2023/06/26 09:34:00;;;;;;;8.85;6.47;;;;;;;-145.63;20.36;37325.19;5053281;28;20033;-68
2023/06/26 09:36:29;;;;;;;10.45;6.50;;;;;;;-145.63;19.95;37323.25;5057190;28;20022;-66
2023/06/26 09:38:55;;;;;;;7.30;6.60;;;;;;;-145.63;19.65;37360.38;5056803;28;20044;-68
2023/06/26 09:41:21;;;;;;;10.73;6.43;;;;;;;-145.63;19.71;37438.56;5059480;28;20045;-67
2023/06/26 09:43:50;;;;;;;7.93;6.78;;;;;;;-145.63;20.51;37444.44;5054599;28;20033;-69
2023/06/26 09:46:30;;;;;;;7.53;6.35;;;;;;;-145.63;20.81;37614.50;5056257;28;20029;-67
2023/06/26 09:49:06;;;;;;;7.85;7.10;;;;;;;-145.63;21.35;37534.34;5063431;28;20096;-67
2023/06/26 09:51:32;;;;;;;7.68;6.85;;;;;;;-145.63;21.22;37589.09;5065336;28;20032;-66
2023/06/26 09:53:59;;;;;;;9.52;6.40;;;;;;;-145.63;21.69;37553.91;5066007;28;20068;-68
2023/06/26 09:56:25;;;;;;;7.47;6.45;;;;;;;-145.63;22.26;37565.63;5065639;28;20025;-67
2023/06/26 09:58:51;;;;;;;9.63;6.90;;;;;;;-145.63;21.98;37567.59;5065304;28;20043;-67
2023/06/26 10:01:18;;;;;;;8.45;6.20;;;;;;;-145.63;22.23;37647.75;5063957;28;20021;-67
2023/06/26 10:03:44;;;;;;;6.80;6.20;;;;;;;-145.63;22.32;37639.91;5062813;28;20318;-66
2023/06/26 10:06:11;;;;;;;7.85;7.13;;;;;;;-145.63;22.54;37727.91;5065636;28;20091;-69
2023/06/26 10:08:39;;;;;;;7.07;6.38;;;;;;;-145.63;22.41;37690.75;5065746;28;20325;-67
2023/06/26 10:11:05;;;;;;;8.18;6.97;;;;;;;-145.63;22.33;37753.31;5065179;28;20036;-68
2023/06/26 10:13:42;;;;;;;8.10;7.05;;;;;;;-145.63;22.64;37825.66;5065460;28;20024;-67
2023/06/26 10:16:10;;;;;;;10.15;6.28;;;;;;;-145.63;23.40;37811.97;5065368;28;20029;-68
2023/06/26 10:18:38;;;;;;;14.07;7.05;;;;;;;-145.63;22.75;37966.41;5065162;28;20033;-67
2023/06/26 10:21:06;;;;;;;6.85;6.15;;;;;;;-145.63;21.68;37860.84;5065209;28;20103;-67
2023/06/26 10:23:33;;;;;;;10.18;6.45;;;;;;;-145.63;22.13;37810.00;5064991;28;20028;-67
2023/06/26 10:26:01;;;;;;;8.18;6.50;;;;;;;-145.63;21.79;37817.81;5065135;28;20072;-67
2023/06/26 10:28:30;;;;;;;6.45;5.85;;;;;;;-145.63;22.02;37808.06;5065002;28;20029;-71
2023/06/26 10:30:57;;;;;;;6.63;5.90;;;;;;;-145.63;21.46;37667.28;5063720;28;20028;-67
2023/06/26 10:33:22;;;;;;;7.07;6.38;;;;;;;-145.63;23.23;37679.03;5064828;28;20031;-68
2023/06/26 10:35:49;;;;;;;9.70;6.78;;;;;;;-145.63;22.02;37630.16;5064721;28;20032;-68
2023/06/26 10:38:14;;;;;;;6.80;6.20;;;;;;;-145.63;21.48;37686.84;5062990;28;20044;-67
2023/06/26 10:40:50;;;;;;;6.95;6.30;;;;;;;-145.63;21.60;37667.28;5063926;28;20020;-68
2023/06/26 10:43:18;;;;;;;6.85;6.25;;;;;;;-145.63;21.92;37702.47;5063000;28;20108;-68
2023/06/26 10:45:55;;;;;;;6.88;6.18;;;;;;;-145.63;21.90;38173.66;5064265;28;20345;-68
2023/06/26 10:48:22;;;;;;;7.57;6.43;;;;;;;-145.63;21.66;37698.56;5064296;28;20036;-69
2023/06/26 10:50:49;;;;;;;7.43;6.50;;;;;;;-145.63;21.83;37702.47;5063176;28;20096;-68
2023/06/26 10:53:20;;;;;;;7.18;6.50;;;;;;;-145.63;21.65;37673.16;5064598;28;20043;-68
2023/06/26 10:56:03;;;;;;;7.03;6.13;;;;;;;-145.63;21.55;37716.16;5064652;28;20036;-68
2023/06/26 10:58:41;;;;;;;7.35;6.63;;;;;;;-145.63;21.22;37632.09;5043321;28;20087;-68
2023/06/26 11:01:26;;;;;;;9.30;6.40;;;;;;;-145.63;20.98;37628.19;5063326;28;20066;-67
2023/06/26 11:03:58;;;;;;;6.80;6.20;;;;;;;-145.63;21.54;37616.47;5064378;28;20037;-68
2023/06/26 11:06:24;;;;;;;6.97;5.75;;;;;;;-145.63;20.53;37587.13;5064534;28;20093;-68
2023/06/26 11:08:53;;;;;;;6.60;5.22;;;;;;;-145.63;21.12;37501.13;5063882;28;20298;-68